aviador You're here:

KMWA Decoded Metar

MARION REGIONAL in IL, USA
Report Time2017-11-21 05:55:00
UTC Time2017-11-21 06:14:26
Flight Rules vfr VFR
Wind200° at 07 kt
W.Decomp.*RWY 20: 7.0 kt HW 0.1 kt LCW
RWY 11: 0.1 kt HW 7.0 kt RCW
W.Rank200° ranks 2
Current wind is below 200° avg. (8.6)
Visibility9999 m
Phenomena:N/A
Clouds:N/A
Expected CloudBase > 3,200 ft AGL from Temp-Dew spread
CeilingNone
Temp06°C (ISA -8)
Dew Point-2°C (57% RH)
AAT1.2°C
QNH1015 hPa
Density Alt-492 ft
Elevation472 ft
Report Wrong Elevation
Raw Report
KMWA 210555Z AUTO 20007KT 10SM CLR 06/M02 A2997 RMK AO2 T00561022
10078 20045 401181028=

Extra information for KMWA:More info

Metar Taf Metar & Taf Last 4 Metars F.Rules Stats Wind Profile Meteogram Temp Stats Airport Information Weather charts Add Link Nearby VenuesMetar ALERT Operation Metar Decoded Social comments

AIRNAV info for KMWA